map of OUA home
OUA - Airport
Location
City:  Ouagadougou, Burkina Faso
Name:Ouagadougou Airport
ICAO:DFFD
IATA:OUA

Details
Type:Airport (Aerodrome, Airfield)
Use:Public/Civil, International (customs port of entry)
Latitude:1221'13"N (12.353667)
Longitude:130'43"W (-1.511943)
Elevation:1037 ft (316 m)
Variation:2.02W (WMM2015v2 magnetic declination)
0.12 annual change
Runways:2
Longest:9843 × 148 ft (3000 × 45 m), paved

Time
Time Zone:UTC+0
Local Time:

Weather
METAR:DFFD 041400Z 05008KT 020V100 CAVOK 37/M05 Q1010 NOSIG
TAF:DFFD 041100Z 0412/0518 04010KT 8000 NSC
TEMPO 0417/0421 4000 HZ
TEMPO 0506/0510 4000 HZ

Related Locations
Nearby:
Farthest:RTA: 12353 mi / 19881 km
Elsee, Rotuma Island, FJ

Find:

   beyond  
but within

Other Information
Maps:
NOTAMs:
Links:
Sources:

  
  • flag of Burkina Faso
  

Sectional Chart

Flight Planning
at skyvector.com

Satellite Image

Google Maps Satellite view

 

Copyright © 2004-2019 Karl L. Swartz. All rights reserved.
The Great Circle Mapper name and logo are trademarks of the Great Circle Mapper.
All other trademarks mentioned herein belong to their respective owners.
Please see credits for attibutions and further copyright information.

  Follow gcmap on Facebook Follow gcmap on Twitter GCmap on LinkedIn

hCard Microformat

Geo Microformat